Time;durP1;ratioP1;P1;durP2;ratioP2;P2;SDS_P1;SDS_P2;PMS_P1;PMS_P2;Temp;Humidity;BMP_temperature;BMP_pressure;BME280_temperature;BME280_humidity;BME280_pressure;Samples;Min_cycle;Max_cycle;Signal;HPM_P1;HPM_P2
2022/01/26 00:06:31;;;;;;;119.65;37.45;;;3.40;99.90;;;;;;4989228;28;20061;-82
2022/01/26 00:08:57;;;;;;;120.53;37.38;;;3.90;99.90;;;;;;4989357;28;20046;-83
2022/01/26 00:11:23;;;;;;;115.45;35.90;;;3.90;99.90;;;;;;4940091;28;20196;-83
2022/01/26 00:13:50;;;;;;;118.10;36.22;;;3.40;99.90;;;;;;4989360;28;20046;-82
2022/01/26 00:18:52;;;;;;;116.10;35.85;;;3.40;99.90;;;;;;4972159;28;20062;-83
2022/01/26 00:21:28;;;;;;;116.60;36.05;;;3.40;99.90;;;;;;4989091;28;20038;-82
2022/01/26 00:26:32;;;;;;;111.82;36.60;;;3.60;99.90;;;;;;4989004;28;20362;-84
2022/01/26 00:29:12;;;;;;;113.53;36.15;;;3.60;99.90;;;;;;4957449;28;20054;-84
2022/01/26 00:40:13;;;;;;;108.38;36.80;;;3.40;99.90;;;;;;4991299;28;20062;-83
2022/01/26 00:42:41;;;;;;;112.07;34.53;;;3.40;99.90;;;;;;4975683;28;20034;-83
2022/01/26 00:45:07;;;;;;;103.38;34.38;;;3.40;99.90;;;;;;4992470;28;20552;-83
2022/01/26 00:47:33;;;;;;;108.65;34.15;;;3.40;99.90;;;;;;4975560;28;20479;-81
2022/01/26 00:50:04;;;;;;;112.28;35.08;;;3.80;99.90;;;;;;4959710;28;20051;-82
2022/01/26 00:52:39;;;;;;;119.38;37.15;;;3.40;99.90;;;;;;4960238;28;20042;-83
2022/01/26 00:55:06;;;;;;;108.88;36.78;;;3.40;99.90;;;;;;4976395;28;20103;-83
2022/01/26 00:57:32;;;;;;;116.00;35.47;;;3.30;99.90;;;;;;4958572;28;20386;-83
2022/01/26 00:59:59;;;;;;;113.63;36.38;;;3.30;99.90;;;;;;4974852;28;20076;-82
2022/01/26 01:02:24;;;;;;;115.60;33.45;;;3.30;99.90;;;;;;4992054;28;20112;-83
2022/01/26 01:04:50;;;;;;;105.72;34.97;;;3.40;99.90;;;;;;4991827;28;20054;-82
2022/01/26 01:07:20;;;;;;;119.28;38.22;;;3.40;99.90;;;;;;4992071;28;20038;-82
2022/01/26 01:09:46;;;;;;;108.82;34.10;;;3.50;99.90;;;;;;4991852;28;20042;-83
2022/01/26 01:12:12;;;;;;;121.68;38.08;;;3.60;99.90;;;;;;4992049;28;20042;-83
2022/01/26 01:14:39;;;;;;;122.53;38.03;;;3.20;99.90;;;;;;4974007;28;20385;-82
2022/01/26 01:17:07;;;;;;;124.85;38.05;;;3.20;99.90;;;;;;4974563;28;20046;-83
2022/01/26 01:19:38;;;;;;;129.48;37.78;;;3.20;99.90;;;;;;4942800;28;20051;-83
2022/01/26 01:30:58;;;;;;;123.55;38.10;;;3.20;99.90;;;;;;4974623;28;20042;-83
2022/01/26 01:33:07;;;;;;;116.63;33.40;;;3.20;99.90;;;;;;4963729;28;20051;-83
2022/01/26 01:35:35;;;;;;;120.55;38.25;;;3.10;99.90;;;;;;4974382;28;20058;-83
2022/01/26 01:38:08;;;;;;;117.38;37.83;;;3.10;99.90;;;;;;4974662;28;20476;-82
2022/01/26 01:40:39;;;;;;;117.60;37.67;;;3.20;99.90;;;;;;4944134;28;20042;-82
2022/01/26 01:43:05;;;;;;;126.57;38.45;;;3.20;99.90;;;;;;4991592;28;20050;-84
2022/01/26 01:45:41;;;;;;;125.75;37.55;;;3.60;99.90;;;;;;4974093;28;20559;-89
2022/01/26 01:48:07;;;;;;;116.07;36.92;;;3.20;99.90;;;;;;4975040;28;20125;-83
2022/01/26 01:50:38;;;;;;;121.60;38.05;;;3.80;99.90;;;;;;4990754;28;20153;-83
2022/01/26 01:53:04;;;;;;;117.40;37.63;;;3.20;99.90;;;;;;4991431;28;20099;-83
2022/01/26 01:55:32;;;;;;;125.57;38.78;;;3.50;99.90;;;;;;4991413;28;20042;-83
2022/01/26 01:57:58;;;;;;;124.13;39.63;;;3.10;99.90;;;;;;4974109;28;20050;-83
2022/01/26 02:00:24;;;;;;;117.82;37.33;;;3.90;99.90;;;;;;4974162;28;20073;-82
2022/01/26 02:02:50;;;;;;;128.65;38.08;;;3.00;99.90;;;;;;4972501;28;20054;-83
2022/01/26 02:05:16;;;;;;;114.22;37.72;;;3.00;99.90;;;;;;4972619;28;20057;-82
2022/01/26 02:07:41;;;;;;;127.13;39.65;;;3.10;99.90;;;;;;4972596;28;20053;-84
2022/01/26 02:10:09;;;;;;;120.80;39.25;;;3.10;99.90;;;;;;4972743;28;20046;-82
2022/01/26 02:12:37;;;;;;;111.60;35.10;;;3.00;99.90;;;;;;4990002;28;20429;-87
2022/01/26 02:15:10;;;;;;;118.15;38.53;;;3.00;99.90;;;;;;4990209;28;20042;-82
2022/01/26 02:18:13;;;;;;;121.68;39.72;;;3.10;99.90;;;;;;4942376;28;20053;-83
2022/01/26 02:55:54;;;;;;;103.78;34.55;;;3.60;99.90;;;;;;4989193;28;20050;-83
2022/01/26 02:58:49;;;;;;;110.55;35.47;;;3.00;99.90;;;;;;4973032;28;20091;-83
2022/01/26 03:06:53;;;;;;;109.97;34.25;;;3.00;99.90;;;;;;4990401;28;20054;-82
2022/01/26 03:09:25;;;;;;;113.57;36.47;;;3.00;99.90;;;;;;4990347;28;20050;-83
2022/01/26 03:11:51;;;;;;;105.82;33.90;;;3.20;99.90;;;;;;4972563;28;20062;-83
2022/01/26 03:14:37;;;;;;;102.93;34.03;;;3.00;99.90;;;;;;4972655;28;20365;-84
2022/01/26 03:17:17;;;;;;;105.68;35.40;;;2.90;99.90;;;;;;4975334;28;20495;-83
2022/01/26 03:19:48;;;;;;;112.82;35.08;;;2.90;99.90;;;;;;4989642;28;20054;-85
2022/01/26 03:30:27;;;;;;;107.45;35.13;;;3.00;99.90;;;;;;4989695;28;20105;-82
2022/01/26 03:38:21;;;;;;;115.78;34.75;;;2.80;99.90;;;;;;4956037;28;20054;-82
2022/01/26 03:40:48;;;;;;;116.50;36.17;;;2.80;99.90;;;;;;4942542;28;20042;-85
2022/01/26 03:43:14;;;;;;;111.03;34.35;;;2.80;99.90;;;;;;4956523;28;20053;-83
2022/01/26 03:45:40;;;;;;;118.43;35.78;;;2.80;99.90;;;;;;4972327;28;20454;-83
2022/01/26 03:48:05;;;;;;;109.45;35.97;;;2.80;99.90;;;;;;4972212;28;20046;-82
2022/01/26 03:50:31;;;;;;;110.38;35.25;;;2.80;99.90;;;;;;4989641;28;20092;-82
2022/01/26 03:52:56;;;;;;;112.53;35.80;;;2.90;99.90;;;;;;4971882;28;20039;-83
2022/01/26 03:55:22;;;;;;;117.90;35.63;;;3.10;99.90;;;;;;4989554;28;20051;-83
2022/01/26 03:57:48;;;;;;;124.22;38.85;;;3.30;99.90;;;;;;4989079;28;20046;-83
2022/01/26 04:00:14;;;;;;;117.40;35.90;;;2.80;99.90;;;;;;4972637;28;20372;-83
2022/01/26 04:02:40;;;;;;;120.10;37.90;;;2.80;99.90;;;;;;4968873;28;20051;-85
2022/01/26 04:05:10;;;;;;;119.50;35.13;;;2.80;99.90;;;;;;4968960;28;20043;-83
2022/01/26 04:07:36;;;;;;;123.65;35.88;;;2.80;99.90;;;;;;4953212;28;20133;-83
2022/01/26 04:10:17;;;;;;;121.95;38.13;;;2.90;99.90;;;;;;4968890;28;20047;-83
2022/01/26 04:12:43;;;;;;;117.45;37.38;;;2.80;99.90;;;;;;4968776;28;20357;-82
2022/01/26 04:15:20;;;;;;;117.82;38.58;;;4.10;99.90;;;;;;4969781;28;20104;-83
2022/01/26 04:17:46;;;;;;;121.57;37.38;;;2.70;99.90;;;;;;4968956;28;20054;-84
2022/01/26 04:20:12;;;;;;;116.35;37.88;;;3.60;99.90;;;;;;4969789;28;20039;-83
2022/01/26 04:22:49;;;;;;;114.53;37.25;;;2.80;99.90;;;;;;4968861;28;20130;-83
2022/01/26 04:25:20;;;;;;;114.53;36.05;;;3.00;99.90;;;;;;4970071;28;20055;-83
2022/01/26 04:27:49;;;;;;;111.00;34.95;;;2.80;99.90;;;;;;4968823;28;20054;-83
2022/01/26 04:30:15;;;;;;;110.70;36.10;;;2.90;99.90;;;;;;4969942;28;20047;-82
2022/01/26 04:32:40;;;;;;;120.93;38.20;;;2.90;99.90;;;;;;4952331;28;20051;-82
2022/01/26 04:35:08;;;;;;;114.57;37.60;;;3.30;99.90;;;;;;4969908;28;20053;-83
2022/01/26 04:40:16;;;;;;;115.13;35.42;;;2.80;99.90;;;;;;4969680;28;20070;-82
2022/01/26 04:43:08;;;;;;;113.18;36.40;;;3.30;99.90;;;;;;4969886;28;20042;-83
2022/01/26 04:45:28;;;;;;;112.20;35.67;;;2.90;99.90;;;;;;4968060;28;20055;-83
2022/01/26 04:47:54;;;;;;;110.72;36.70;;;2.80;99.90;;;;;;4969627;28;20561;-83
2022/01/26 04:50:19;;;;;;;110.95;37.47;;;3.50;99.90;;;;;;4969702;28;20078;-85
2022/01/26 04:52:46;;;;;;;114.68;35.42;;;2.80;99.90;;;;;;4968420;28;20391;-83
2022/01/26 04:55:15;;;;;;;111.43;35.50;;;2.80;99.90;;;;;;4968649;28;20122;-83
2022/01/26 04:57:40;;;;;;;109.70;35.92;;;2.80;99.90;;;;;;4970774;28;20129;-83
2022/01/26 05:00:07;;;;;;;112.43;35.97;;;2.80;99.90;;;;;;4952466;28;20125;-82
2022/01/26 05:02:33;;;;;;;108.75;36.30;;;2.70;99.90;;;;;;4955323;28;20054;-82
2022/01/26 05:04:59;;;;;;;108.88;34.88;;;2.70;99.90;;;;;;4955232;28;20054;-82
2022/01/26 05:07:25;;;;;;;113.65;35.53;;;2.70;99.90;;;;;;4989134;28;20383;-82
2022/01/26 05:09:50;;;;;;;107.70;35.85;;;4.20;99.90;;;;;;4971477;28;20042;-83
2022/01/26 05:12:17;;;;;;;108.13;35.83;;;2.80;99.90;;;;;;4988241;28;20471;-82
2022/01/26 05:14:45;;;;;;;109.20;35.70;;;2.70;99.90;;;;;;4955688;28;20062;-82
2022/01/26 05:17:12;;;;;;;102.85;33.22;;;2.80;99.90;;;;;;4955597;28;20054;-83
2022/01/26 05:19:38;;;;;;;101.65;34.35;;;2.70;99.90;;;;;;4971433;28;20082;-83
2022/01/26 05:22:04;;;;;;;104.93;32.90;;;3.80;99.90;;;;;;4954881;28;20078;-82
2022/01/26 05:24:30;;;;;;;101.65;32.83;;;2.70;99.90;;;;;;4939318;28;20050;-83
2022/01/26 05:26:56;;;;;;;112.07;36.20;;;3.40;99.90;;;;;;4974867;28;20069;-83
2022/01/26 05:29:22;;;;;;;102.15;34.58;;;3.40;99.90;;;;;;4991945;28;20456;-83
2022/01/26 05:31:47;;;;;;;102.72;33.35;;;3.20;99.90;;;;;;4958647;28;20050;-83
2022/01/26 05:34:13;;;;;;;106.85;35.42;;;2.80;99.90;;;;;;4974123;28;20038;-82
2022/01/26 05:36:39;;;;;;;105.18;34.05;;;2.70;99.90;;;;;;4958584;28;20042;-83
2022/01/26 05:39:04;;;;;;;107.10;34.55;;;2.70;99.90;;;;;;4991243;28;20411;-83
2022/01/26 05:41:30;;;;;;;103.47;32.70;;;2.70;99.90;;;;;;4991562;28;20038;-83
2022/01/26 05:43:56;;;;;;;94.43;32.28;;;2.80;99.90;;;;;;4974530;28;20135;-84
2022/01/26 05:46:38;;;;;;;106.35;34.47;;;2.70;99.90;;;;;;4957974;28;20091;-83
2022/01/26 05:49:03;;;;;;;104.85;32.95;;;2.70;99.90;;;;;;4960148;28;20042;-82
2022/01/26 05:51:32;;;;;;;104.90;34.08;;;2.70;99.90;;;;;;4974367;28;20045;-83
2022/01/26 05:53:58;;;;;;;104.32;34.30;;;2.70;99.90;;;;;;4991367;28;20046;-83
2022/01/26 05:56:23;;;;;;;105.18;35.50;;;2.70;99.90;;;;;;4991065;28;20131;-84
2022/01/26 05:58:49;;;;;;;99.03;33.50;;;2.70;99.90;;;;;;4974123;28;20070;-83
2022/01/26 06:01:15;;;;;;;93.32;34.25;;;2.60;99.90;;;;;;4990834;28;20053;-82
2022/01/26 06:03:41;;;;;;;104.00;33.33;;;2.80;99.90;;;;;;4973908;28;20046;-82
2022/01/26 06:06:06;;;;;;;99.32;31.90;;;2.70;99.90;;;;;;4973823;28;20050;-82
2022/01/26 06:08:32;;;;;;;103.57;34.70;;;3.20;99.90;;;;;;4958049;28;20046;-83
2022/01/26 06:10:59;;;;;;;98.40;31.77;;;2.70;99.90;;;;;;4991266;28;20047;-82
2022/01/26 06:13:25;;;;;;;97.97;31.73;;;3.00;99.90;;;;;;4990863;28;20042;-82
2022/01/26 06:15:51;;;;;;;100.30;32.80;;;2.70;99.90;;;;;;4958030;28;20111;-83
2022/01/26 06:18:17;;;;;;;100.75;33.05;;;2.70;99.90;;;;;;4973778;28;20054;-84
2022/01/26 06:20:42;;;;;;;104.50;32.55;;;2.60;99.90;;;;;;4973539;28;20547;-82
2022/01/26 06:23:08;;;;;;;93.82;31.63;;;2.70;99.90;;;;;;4975840;28;20066;-83
2022/01/26 06:25:34;;;;;;;87.68;30.17;;;2.70;99.90;;;;;;4976849;28;20460;-83
2022/01/26 06:28:01;;;;;;;95.75;32.97;;;2.70;99.90;;;;;;4990891;28;20121;-84
2022/01/26 06:30:27;;;;;;;95.55;31.50;;;2.70;99.90;;;;;;4973306;28;20427;-83
2022/01/26 06:32:53;;;;;;;97.30;31.70;;;2.70;99.90;;;;;;4973436;28;20046;-84
2022/01/26 06:35:18;;;;;;;95.38;33.72;;;2.70;99.90;;;;;;4957111;28;20131;-83
2022/01/26 06:37:44;;;;;;;86.53;29.90;;;2.60;99.90;;;;;;4940329;28;20448;-83
2022/01/26 06:40:10;;;;;;;97.78;32.95;;;2.90;99.90;;;;;;4990095;28;20054;-85
2022/01/26 06:42:55;;;;;;;94.10;33.08;;;2.60;99.90;;;;;;4957894;28;20046;-84
2022/01/26 06:45:24;;;;;;;102.13;32.67;;;3.20;99.90;;;;;;4960149;28;20050;-89
2022/01/26 06:50:39;;;;;;;101.22;33.45;;;2.80;99.90;;;;;;4920586;28;20054;-88
2022/01/26 06:53:05;;;;;;;93.20;31.88;;;2.60;99.90;;;;;;4973211;28;20455;-88
2022/01/26 06:55:31;;;;;;;93.95;31.50;;;3.40;99.90;;;;;;4957174;28;20138;-87
2022/01/26 06:57:56;;;;;;;97.32;32.65;;;2.90;99.90;;;;;;4957726;28;20042;-84
2022/01/26 07:00:22;;;;;;;95.57;33.20;;;2.70;99.90;;;;;;4990667;28;20456;-84
2022/01/26 07:02:48;;;;;;;92.90;31.27;;;2.70;99.90;;;;;;4972788;28;20054;-85
2022/01/26 07:05:14;;;;;;;95.22;30.23;;;2.70;99.90;;;;;;4973025;28;20472;-85
2022/01/26 07:07:40;;;;;;;86.25;29.80;;;2.70;99.90;;;;;;4972950;28;20454;-84
2022/01/26 07:10:06;;;;;;;83.13;29.98;;;2.70;99.90;;;;;;4925450;28;20097;-85
2022/01/26 07:12:32;;;;;;;91.80;30.00;;;2.70;99.90;;;;;;4941157;28;20108;-85
2022/01/26 07:23:10;;;;;;;77.15;26.63;;;2.80;99.90;;;;;;4957990;28;20102;-83
2022/01/26 07:25:36;;;;;;;72.32;26.00;;;2.80;99.90;;;;;;4988772;28;20038;-82
2022/01/26 07:28:04;;;;;;;79.80;26.73;;;2.80;99.90;;;;;;4972142;28;20108;-83
2022/01/26 07:30:31;;;;;;;78.35;28.55;;;2.80;99.90;;;;;;4971831;28;20522;-83
2022/01/26 07:32:57;;;;;;;85.13;30.67;;;2.90;99.90;;;;;;4971872;28;20073;-83
2022/01/26 07:35:22;;;;;;;82.22;30.77;;;3.50;99.90;;;;;;4971077;28;20521;-82
2022/01/26 07:37:50;;;;;;;87.85;31.70;;;2.80;99.90;;;;;;4989246;28;20050;-82
2022/01/26 07:40:16;;;;;;;87.40;32.00;;;3.40;99.90;;;;;;4955112;28;20110;-86
2022/01/26 07:42:41;;;;;;;88.82;30.15;;;2.70;99.90;;;;;;4971728;28;20487;-83
2022/01/26 07:45:09;;;;;;;86.57;32.08;;;2.80;99.90;;;;;;4971311;28;20054;-82
2022/01/26 07:47:36;;;;;;;87.25;32.40;;;2.80;99.90;;;;;;4954692;28;20069;-83
2022/01/26 07:50:08;;;;;;;86.70;30.92;;;2.80;99.90;;;;;;4972396;28;20050;-83
2022/01/26 07:52:38;;;;;;;93.53;34.08;;;2.90;99.90;;;;;;4955535;28;20174;-83
2022/01/26 07:55:05;;;;;;;90.50;33.78;;;2.90;99.90;;;;;;4989084;28;20054;-83
2022/01/26 07:57:30;;;;;;;97.93;33.63;;;2.90;99.90;;;;;;4955351;28;20483;-82
2022/01/26 07:59:56;;;;;;;94.43;34.33;;;2.90;99.90;;;;;;4989131;28;20046;-83
2022/01/26 08:02:22;;;;;;;92.07;34.25;;;2.90;99.90;;;;;;4955054;28;20058;-83
2022/01/26 08:04:48;;;;;;;104.88;36.33;;;3.80;99.90;;;;;;4955457;28;20060;-83
2022/01/26 08:07:13;;;;;;;101.55;35.40;;;2.90;99.90;;;;;;4955688;28;20080;-83
2022/01/26 08:09:44;;;;;;;94.88;35.58;;;3.00;99.90;;;;;;4988551;28;20043;-84
2022/01/26 08:12:17;;;;;;;99.28;34.92;;;2.80;99.90;;;;;;4940295;28;20051;-82
2022/01/26 08:14:43;;;;;;;106.07;37.95;;;2.80;99.90;;;;;;4989140;28;20050;-83
2022/01/26 08:17:09;;;;;;;96.03;33.85;;;3.20;99.90;;;;;;4972243;28;20093;-83
2022/01/26 08:19:35;;;;;;;71.82;27.90;;;3.00;99.90;;;;;;4972058;28;20089;-83
2022/01/26 08:22:02;;;;;;;100.93;39.08;;;3.00;99.90;;;;;;4990865;28;20046;-86
2022/01/26 08:24:31;;;;;;;104.35;36.80;;;2.90;99.90;;;;;;4958325;28;20050;-83
2022/01/26 08:27:01;;;;;;;107.70;38.92;;;3.00;99.90;;;;;;4957919;28;20392;-85
2022/01/26 08:29:36;;;;;;;115.20;40.90;;;3.60;99.90;;;;;;4991166;28;20050;-84
2022/01/26 08:32:01;;;;;;;108.88;39.75;;;3.40;99.90;;;;;;4958754;28;20117;-84
2022/01/26 08:34:27;;;;;;;112.25;41.95;;;3.00;99.90;;;;;;4973498;28;20130;-84
2022/01/26 08:36:53;;;;;;;113.00;42.53;;;2.90;99.90;;;;;;4957340;28;20103;-83
2022/01/26 08:39:19;;;;;;;119.35;42.63;;;2.90;99.90;;;;;;4957237;28;20047;-83
2022/01/26 08:41:45;;;;;;;116.65;41.80;;;3.00;99.90;;;;;;4973293;28;20046;-83
2022/01/26 08:44:10;;;;;;;109.35;39.15;;;3.20;99.90;;;;;;4973194;28;20050;-84
2022/01/26 08:46:36;;;;;;;114.72;42.65;;;3.20;99.90;;;;;;4989556;28;20095;-83
2022/01/26 08:49:03;;;;;;;117.38;43.50;;;3.10;99.90;;;;;;4956649;28;20046;-84
2022/01/26 08:51:29;;;;;;;123.60;44.35;;;3.10;99.90;;;;;;4989821;28;20054;-83
2022/01/26 08:53:54;;;;;;;124.32;43.88;;;3.10;99.90;;;;;;4971884;28;20054;-85
2022/01/26 08:56:20;;;;;;;122.85;44.72;;;3.10;99.90;;;;;;4989118;28;20369;-86
2022/01/26 08:58:46;;;;;;;124.40;47.15;;;3.10;99.90;;;;;;4988228;28;20078;-85
2022/01/26 09:01:11;;;;;;;128.07;44.35;;;3.00;99.90;;;;;;4957165;28;20104;-85
2022/01/26 09:03:41;;;;;;;137.80;48.47;;;3.10;99.90;;;;;;4991999;28;20141;-86
2022/01/26 09:06:07;;;;;;;138.10;49.08;;;3.10;99.90;;;;;;4974724;28;20163;-85
2022/01/26 09:08:33;;;;;;;132.25;47.60;;;3.20;99.90;;;;;;4974405;28;20051;-85
2022/01/26 09:11:01;;;;;;;131.45;48.63;;;3.20;99.90;;;;;;4958470;28;20054;-83
2022/01/26 09:13:32;;;;;;;136.68;48.92;;;3.20;99.90;;;;;;4975950;28;20042;-84
2022/01/26 09:15:58;;;;;;;132.68;49.20;;;3.20;99.90;;;;;;4993139;28;20061;-82
2022/01/26 09:21:06;;;;;;;134.27;50.50;;;3.20;99.90;;;;;;4993535;28;20463;-83
2022/01/26 09:23:32;;;;;;;132.82;48.70;;;3.30;99.90;;;;;;4975739;28;20049;-84
2022/01/26 09:25:57;;;;;;;135.18;50.95;;;3.30;99.90;;;;;;4959984;28;20051;-84
2022/01/26 09:28:24;;;;;;;145.13;53.38;;;3.30;99.90;;;;;;4986755;28;20080;-84
2022/01/26 09:30:51;;;;;;;146.73;51.17;;;4.00;99.90;;;;;;5013457;28;20038;-87
2022/01/26 09:33:16;;;;;;;135.63;51.40;;;3.30;99.90;;;;;;4968578;28;20483;-84
2022/01/26 09:35:42;;;;;;;144.75;51.90;;;3.30;99.90;;;;;;4926873;28;20046;-86
2022/01/26 09:38:08;;;;;;;142.68;53.38;;;3.40;99.90;;;;;;4974610;28;20050;-86
2022/01/26 09:40:33;;;;;;;145.55;53.70;;;3.40;99.90;;;;;;4991178;28;20102;-85
2022/01/26 09:43:00;;;;;;;147.93;53.38;;;3.50;99.90;;;;;;4991547;28;20043;-86
2022/01/26 09:45:25;;;;;;;147.27;53.22;;;3.50;99.90;;;;;;4973969;28;20057;-85
2022/01/26 09:47:51;;;;;;;147.60;54.05;;;3.60;99.90;;;;;;4990836;28;20488;-84
2022/01/26 09:50:17;;;;;;;141.35;52.30;;;3.60;99.90;;;;;;4973594;28;20057;-84
2022/01/26 09:52:47;;;;;;;139.07;52.92;;;3.60;99.90;;;;;;4990837;28;20495;-84
2022/01/26 09:55:14;;;;;;;148.75;54.35;;;3.70;99.90;;;;;;4991306;28;20047;-84
2022/01/26 09:57:42;;;;;;;152.43;55.38;;;3.70;99.90;;;;;;4973006;28;20135;-84
2022/01/26 10:00:08;;;;;;;146.02;53.78;;;3.70;99.90;;;;;;4991302;28;20050;-85
2022/01/26 10:02:34;;;;;;;137.70;52.25;;;3.70;99.90;;;;;;4956985;28;20588;-84
2022/01/26 10:05:03;;;;;;;141.68;52.67;;;3.70;99.90;;;;;;4973239;28;20062;-85
2022/01/26 10:07:43;;;;;;;139.82;52.60;;;3.80;99.90;;;;;;4952910;28;20133;-86
2022/01/26 10:15:41;;;;;;;;;;;3.90;99.90;;;;;;4940771;28;20488;-85
2022/01/26 10:18:14;;;;;;;134.45;50.47;;;3.90;99.90;;;;;;4955662;28;19933;-86
2022/01/26 10:20:49;;;;;;;148.60;55.60;;;3.90;99.90;;;;;;4939316;28;20090;-85
2022/01/26 10:23:25;;;;;;;141.02;51.33;;;3.80;99.90;;;;;;4922777;28;20059;-85
2022/01/26 10:26:03;;;;;;;145.68;53.97;;;3.80;99.90;;;;;;4956789;28;20047;-83
2022/01/26 10:28:54;;;;;;;146.15;56.63;;;4.00;99.90;;;;;;4973231;28;20046;-84
2022/01/26 10:31:28;;;;;;;143.30;54.20;;;4.00;99.90;;;;;;4956013;28;20061;-84
2022/01/26 10:34:00;;;;;;;138.20;52.80;;;4.00;99.90;;;;;;4955255;28;20392;-84
2022/01/26 10:36:39;;;;;;;136.43;51.80;;;4.10;99.90;;;;;;4972819;28;20567;-84
2022/01/26 10:39:10;;;;;;;143.32;53.25;;;4.00;99.90;;;;;;4974012;28;20070;-83
2022/01/26 10:41:36;;;;;;;135.13;50.08;;;4.10;99.90;;;;;;4940361;28;20097;-84
2022/01/26 10:44:04;;;;;;;124.00;48.00;;;5.60;99.90;;;;;;5005832;28;20055;-85
2022/01/26 10:46:39;;;;;;;140.85;54.05;;;4.20;99.90;;;;;;4954977;28;20054;-85
2022/01/26 10:57:01;;;;;;;130.88;52.15;;;4.30;99.90;;;;;;4972125;28;20062;-86
2022/01/26 10:59:26;;;;;;;118.45;47.42;;;4.30;99.90;;;;;;4955153;28;20043;-83
2022/01/26 11:02:13;;;;;;;129.13;50.38;;;4.30;99.90;;;;;;4972780;28;20077;-86
2022/01/26 11:04:40;;;;;;;117.85;48.78;;;4.20;99.90;;;;;;4977253;28;20054;-83
2022/01/26 11:07:08;;;;;;;117.35;46.90;;;4.30;99.90;;;;;;4958264;28;20054;-83
2022/01/26 11:09:35;;;;;;;124.85;49.25;;;4.30;99.90;;;;;;4955585;28;20059;-86
2022/01/26 11:12:08;;;;;;;116.35;46.03;;;5.30;99.90;;;;;;4954601;28;20050;-85
2022/01/26 11:14:44;;;;;;;121.18;49.25;;;4.40;99.90;;;;;;4953858;28;20631;-86
2022/01/26 11:17:34;;;;;;;125.75;48.97;;;4.40;99.90;;;;;;4938596;28;20047;-85
2022/01/26 11:20:00;;;;;;;119.72;47.05;;;4.40;99.90;;;;;;4971062;28;20094;-84
2022/01/26 11:22:31;;;;;;;117.95;48.13;;;4.30;99.90;;;;;;4953876;28;20065;-85
2022/01/26 11:25:10;;;;;;;123.88;49.20;;;4.70;99.90;;;;;;4954255;28;20674;-87
2022/01/26 11:27:38;;;;;;;125.78;48.92;;;4.20;99.90;;;;;;4954192;28;20055;-85
2022/01/26 11:30:22;;;;;;;129.32;49.50;;;4.20;99.90;;;;;;4954130;28;20213;-86
2022/01/26 11:32:56;;;;;;;126.00;49.15;;;4.30;99.90;;;;;;4944216;28;20046;-87
2022/01/26 11:35:23;;;;;;;129.52;47.95;;;4.30;99.90;;;;;;4967783;28;20068;-87
2022/01/26 11:38:13;;;;;;;117.82;45.88;;;4.70;99.90;;;;;;4972519;28;20480;-87
2022/01/26 11:46:11;;;;;;;121.93;46.15;;;4.60;99.90;;;;;;4956990;28;20046;-87
2022/01/26 11:48:37;;;;;;;114.25;46.40;;;5.40;99.90;;;;;;4971529;28;20050;-88
2022/01/26 11:51:03;;;;;;;112.32;43.08;;;4.70;99.90;;;;;;4939683;28;20055;-89
2022/01/26 11:53:29;;;;;;;119.38;45.30;;;4.70;99.90;;;;;;4971959;28;20039;-89
2022/01/26 11:56:07;;;;;;;118.50;45.75;;;4.70;99.90;;;;;;4988780;28;20476;-89
2022/01/26 11:58:41;;;;;;;113.93;44.88;;;4.80;99.90;;;;;;4952760;28;20065;-89
2022/01/26 12:01:13;;;;;;;116.50;42.38;;;4.80;99.90;;;;;;4971220;28;20042;-85
2022/01/26 12:03:46;;;;;;;111.63;43.80;;;4.80;99.90;;;;;;4972315;28;20496;-87
2022/01/26 12:06:19;;;;;;;114.22;43.10;;;4.80;99.90;;;;;;4972499;28;20050;-86
2022/01/26 12:08:45;;;;;;;111.97;42.33;;;4.70;99.90;;;;;;4956095;28;20484;-85
2022/01/26 12:11:13;;;;;;;116.20;43.00;;;4.70;99.90;;;;;;4971396;28;20058;-84
2022/01/26 12:13:40;;;;;;;111.93;40.95;;;4.80;99.90;;;;;;4972399;28;20046;-85
2022/01/26 12:16:15;;;;;;;113.40;41.80;;;5.80;99.90;;;;;;4989197;28;20125;-85
2022/01/26 12:18:55;;;;;;;108.70;40.30;;;4.70;99.90;;;;;;4941092;28;20061;-86
2022/01/26 12:35:40;;;;;;;99.80;39.28;;;4.80;99.90;;;;;;4960718;28;20558;-84
2022/01/26 12:38:24;;;;;;;109.20;39.80;;;4.80;99.90;;;;;;4974117;28;20066;-85
2022/01/26 12:43:38;;;;;;;98.88;38.97;;;4.80;99.90;;;;;;4992291;28;20058;-84
2022/01/26 12:46:08;;;;;;;104.03;38.35;;;4.80;99.90;;;;;;4974991;28;20068;-84
2022/01/26 12:48:35;;;;;;;96.25;38.60;;;4.90;99.90;;;;;;4975368;28;20082;-84
2022/01/26 12:51:02;;;;;;;96.47;37.80;;;4.80;99.90;;;;;;4974244;28;20778;-84
2022/01/26 12:53:28;;;;;;;100.75;39.65;;;5.20;99.90;;;;;;4974918;28;20563;-87
2022/01/26 12:55:56;;;;;;;104.95;37.50;;;4.80;99.90;;;;;;4959021;28;20054;-88
2022/01/26 12:58:27;;;;;;;99.00;39.78;;;4.90;99.90;;;;;;4974993;28;20395;-85
2022/01/26 13:00:53;;;;;;;106.90;39.05;;;4.80;99.90;;;;;;4957950;28;20063;-90
2022/01/26 13:03:20;;;;;;;100.22;39.63;;;5.10;99.90;;;;;;4973536;28;20148;-86
2022/01/26 13:05:45;;;;;;;114.18;42.63;;;4.80;99.90;;;;;;4992140;28;20081;-85
2022/01/26 13:08:11;;;;;;;106.57;43.00;;;4.80;99.90;;;;;;4942276;28;20054;-85
2022/01/26 13:10:37;;;;;;;116.30;43.03;;;4.80;99.90;;;;;;4991137;28;20108;-85
2022/01/26 13:13:10;;;;;;;95.57;34.83;;;4.90;99.90;;;;;;4957680;28;20071;-84
2022/01/26 13:15:46;;;;;;;116.38;44.95;;;4.90;99.90;;;;;;4959101;28;20054;-84
2022/01/26 13:18:29;;;;;;;120.65;43.72;;;4.70;99.90;;;;;;4976307;28;20066;-85
2022/01/26 13:21:14;;;;;;;114.88;45.40;;;4.80;99.90;;;;;;4976622;28;20050;-84
2022/01/26 13:23:53;;;;;;;122.90;44.80;;;4.60;99.90;;;;;;4974503;28;20107;-85
2022/01/26 13:31:47;;;;;;;118.07;42.63;;;4.70;99.90;;;;;;4974420;28;20101;-84
2022/01/26 13:36:56;;;;;;;115.72;43.90;;;4.80;99.90;;;;;;4973282;28;20133;-86
2022/01/26 13:53:01;;;;;;;94.35;38.22;;;4.90;99.90;;;;;;4974657;28;20070;-87
2022/01/26 14:00:21;;;;;;;93.43;38.05;;;5.00;99.90;;;;;;4957558;28;20123;-86
2022/01/26 14:02:49;;;;;;;94.20;37.67;;;4.90;99.90;;;;;;4973703;28;20128;-84
2022/01/26 14:05:15;;;;;;;94.93;38.25;;;4.90;99.90;;;;;;4973526;28;20054;-84
2022/01/26 14:07:40;;;;;;;93.72;38.25;;;4.90;99.90;;;;;;4990992;28;20138;-86
2022/01/26 14:10:06;;;;;;;86.13;33.15;;;4.90;99.90;;;;;;4990467;28;20046;-84
2022/01/26 14:12:38;;;;;;;95.43;36.47;;;5.00;99.90;;;;;;4973504;28;20046;-87
2022/01/26 14:15:07;;;;;;;78.18;33.50;;;5.10;99.90;;;;;;4973360;28;20530;-88
2022/01/26 14:18:40;;;;;;;80.20;33.92;;;5.10;99.90;;;;;;4973793;28;20053;-89
2022/01/26 14:20:43;;;;;;;80.63;33.25;;;5.20;99.90;;;;;;4966153;28;20519;-88
2022/01/26 14:25:41;;;;;;;89.78;35.47;;;5.10;99.90;;;;;;4990835;28;20476;-84
2022/01/26 14:28:09;;;;;;;84.35;35.05;;;5.00;99.90;;;;;;4990615;28;20077;-84
2022/01/26 14:33:37;;;;;;;76.78;33.47;;;5.20;99.90;;;;;;4972546;28;20407;-83
2022/01/26 15:48:49;;;;;;;;;;;5.20;99.90;;;;;;4974449;28;20128;-83
2022/01/26 15:51:44;;;;;;;83.65;33.22;;;5.20;99.90;;;;;;4988633;28;19922;-89
2022/01/26 16:16:30;;;;;;;71.90;30.27;;;5.30;99.90;;;;;;4972298;28;20065;-88
2022/01/26 17:48:04;;;;;;;86.13;35.80;;;6.20;99.90;;;;;;5010511;28;20670;-87
2022/01/26 18:33:15;;;;;;;70.50;32.55;;;5.50;99.90;;;;;;4954800;28;20055;-86
2022/01/26 18:49:20;;;;;;;62.85;27.48;;;5.80;99.90;;;;;;4956658;28;20055;-87
2022/01/26 18:51:55;;;;;;;62.35;29.33;;;5.90;99.90;;;;;;4957615;28;20103;-86
2022/01/26 18:54:23;;;;;;;69.85;29.95;;;5.80;99.90;;;;;;4940462;28;20122;-89
2022/01/26 18:56:50;;;;;;;64.65;28.02;;;5.80;99.90;;;;;;4934128;28;20500;-88
2022/01/26 18:59:17;;;;;;;63.53;27.67;;;5.90;99.90;;;;;;5002632;28;20065;-89
2022/01/26 19:01:43;;;;;;;65.35;29.50;;;6.00;99.90;;;;;;4969157;28;20584;-88
2022/01/26 19:04:09;;;;;;;48.75;23.67;;;5.90;99.90;;;;;;4953842;28;20059;-86
2022/01/26 19:06:38;;;;;;;59.53;27.13;;;6.10;99.90;;;;;;4992150;28;20127;-87
2022/01/26 19:09:04;;;;;;;59.83;27.83;;;6.10;99.90;;;;;;4947201;28;20045;-87
2022/01/26 19:11:30;;;;;;;63.72;30.27;;;6.00;99.90;;;;;;4973962;28;20132;-86
2022/01/26 19:13:56;;;;;;;54.20;26.23;;;6.00;99.90;;;;;;4975139;28;20126;-87
2022/01/26 19:19:01;;;;;;;57.58;26.98;;;5.90;99.90;;;;;;4956099;28;20419;-86
2022/01/26 19:21:50;;;;;;;62.65;30.77;;;6.40;99.90;;;;;;4958544;28;20070;-85
2022/01/26 19:26:46;;;;;;;55.20;27.52;;;6.00;99.90;;;;;;4962140;28;20400;-86
2022/01/26 19:29:28;;;;;;;57.80;28.02;;;6.00;99.90;;;;;;4936912;28;20103;-85
2022/01/26 19:51:05;;;;;;;56.65;25.98;;;6.00;99.90;;;;;;4964490;28;20568;-87